createdAt,value
2022-10-06T00:03:38.534Z,99658.09
2022-10-06T00:07:40.669Z,99658.03
2022-10-06T00:11:42.725Z,99655.28
2022-10-06T00:15:44.824Z,99658.22
2022-10-06T00:19:46.827Z,99653.69
2022-10-06T00:23:48.875Z,99664.16
2022-10-06T00:27:52.702Z,99668.84
2022-10-06T00:31:55.310Z,99660.19
2022-10-06T00:35:58.783Z,99665.00
2022-10-06T00:40:01.690Z,99666.16
2022-10-06T00:44:03.726Z,99660.25
2022-10-06T00:48:14.786Z,99661.53
2022-10-06T00:52:22.029Z,99664.31
2022-10-06T00:56:25.237Z,99661.41
2022-10-06T01:00:28.532Z,99652.91
2022-10-06T01:04:38.355Z,99651.31
2022-10-06T01:08:40.747Z,99647.28
2022-10-06T01:12:43.124Z,99646.81
2022-10-06T01:16:51.987Z,99653.47
2022-10-06T01:21:06.033Z,99647.16
2022-10-06T01:25:10.718Z,99649.16
2022-10-06T01:29:13.653Z,99652.94
2022-10-06T01:33:15.729Z,99651.44
2022-10-06T01:37:19.326Z,99643.75
2022-10-06T01:41:22.598Z,99649.81
2022-10-06T01:45:25.038Z,99647.19
2022-10-06T01:49:27.882Z,99650.50
2022-10-06T01:53:30.218Z,99647.44
2022-10-06T01:57:32.623Z,99647.59
2022-10-06T02:01:35.986Z,99646.09
2022-10-06T02:05:38.386Z,99637.75
2022-10-06T02:09:40.606Z,99641.22
2022-10-06T02:13:47.802Z,99636.19
2022-10-06T02:17:52.092Z,99636.44
2022-10-06T02:21:54.322Z,99640.16
2022-10-06T02:26:03.770Z,99635.16
2022-10-06T02:30:08.112Z,99628.13
2022-10-06T02:34:10.606Z,99631.75
2022-10-06T02:38:12.863Z,99626.34
2022-10-06T02:42:14.949Z,99626.22
2022-10-06T02:46:17.035Z,99629.81
2022-10-06T02:50:24.055Z,99633.53
2022-10-06T02:54:26.142Z,99634.97
2022-10-06T02:58:33.099Z,99641.00
2022-10-06T03:02:40.182Z,99638.06
2022-10-06T03:06:42.483Z,99633.97
2022-10-06T03:11:03.763Z,99639.47
2022-10-06T03:15:06.358Z,99636.22
2022-10-06T03:19:09.997Z,99633.81
2022-10-06T03:23:13.729Z,99631.75
2022-10-06T03:27:16.647Z,99627.63
2022-10-06T03:31:18.973Z,99636.47
2022-10-06T03:35:21.388Z,99633.69
2022-10-06T03:39:23.846Z,99637.75
2022-10-06T03:43:26.674Z,99633.34
2022-10-06T03:47:32.254Z,99633.09
2022-10-06T03:51:40.106Z,99632.03
2022-10-06T03:55:46.235Z,99628.81
2022-10-06T03:59:48.381Z,99636.47
2022-10-06T04:03:50.999Z,99624.22
2022-10-06T04:07:53.124Z,99621.44
2022-10-06T04:11:55.194Z,99627.34
2022-10-06T04:15:57.661Z,99635.59
2022-10-06T04:19:59.776Z,99636.41
2022-10-06T04:24:02.480Z,99641.16
2022-10-06T04:28:04.680Z,99642.78
2022-10-06T04:32:06.966Z,99643.81
2022-10-06T04:36:17.018Z,99644.16
2022-10-06T04:40:19.394Z,99637.25
2022-10-06T04:44:21.471Z,99643.16
2022-10-06T04:48:24.991Z,99633.88
2022-10-06T04:52:27.484Z,99640.03
2022-10-06T04:56:31.607Z,99645.50
2022-10-06T05:00:37.479Z,99647.59
2022-10-06T05:04:39.765Z,99660.53
2022-10-06T05:08:43.340Z,99662.59
2022-10-06T05:12:45.509Z,99662.97
2022-10-06T05:16:48.160Z,99661.25
2022-10-06T05:21:00.252Z,99661.72
2022-10-06T05:25:05.131Z,99666.81
2022-10-06T05:29:07.558Z,99657.06
2022-10-06T05:33:12.368Z,99671.53
2022-10-06T05:37:14.583Z,99671.16
2022-10-06T05:41:21.151Z,99666.53
2022-10-06T05:45:24.318Z,99662.25
2022-10-06T05:49:26.369Z,99667.50
2022-10-06T05:53:36.829Z,99662.50
2022-10-06T05:57:39.781Z,99664.09
2022-10-06T06:01:43.720Z,99661.78
2022-10-06T06:05:53.312Z,99669.16
2022-10-06T06:09:55.974Z,99681.66
2022-10-06T06:14:07.468Z,99678.16
2022-10-06T06:18:12.869Z,99681.97
2022-10-06T06:22:15.239Z,99680.22
2022-10-06T06:26:23.698Z,99682.50
2022-10-06T06:30:26.348Z,99687.31
2022-10-06T06:34:29.115Z,99689.59
2022-10-06T06:38:32.579Z,99690.91
2022-10-06T06:42:35.112Z,99694.59
2022-10-06T06:46:57.402Z,99701.28
2022-10-06T06:50:59.730Z,99704.19
2022-10-06T06:55:05.963Z,99701.81
2022-10-06T06:59:12.066Z,99703.97
2022-10-06T07:03:32.999Z,99700.22
2022-10-06T07:07:43.008Z,99705.03
2022-10-06T07:11:45.347Z,99698.25
2022-10-06T07:16:14.066Z,99707.50
2022-10-06T07:20:34.661Z,99701.81
2022-10-06T07:24:55.455Z,99701.69
2022-10-06T07:29:01.237Z,99702.59
2022-10-06T07:33:05.122Z,99705.41
2022-10-06T07:37:08.109Z,99707.97
2022-10-06T07:41:25.397Z,99701.34
2022-10-06T07:45:41.412Z,99706.56
2022-10-06T07:49:50.953Z,99700.50
2022-10-06T07:53:53.888Z,99702.53
2022-10-06T07:58:20.567Z,99699.72
2022-10-06T08:02:23.293Z,99696.84
2022-10-06T08:06:25.528Z,99705.84
2022-10-06T08:10:28.139Z,99702.94
2022-10-06T08:14:30.147Z,99706.72
2022-10-06T08:18:46.076Z,99707.59
2022-10-06T08:22:48.812Z,99710.63
2022-10-06T08:26:50.780Z,99719.75
2022-10-06T08:30:53.007Z,99716.28
2022-10-06T08:34:55.285Z,99719.75
2022-10-06T08:38:57.586Z,99716.50
2022-10-06T08:43:02.471Z,99710.00
2022-10-06T08:47:13.064Z,99711.34
2022-10-06T08:51:25.492Z,99712.88
2022-10-06T08:55:52.596Z,99701.50
2022-10-06T08:59:54.959Z,99705.69
2022-10-06T09:04:03.272Z,99709.38
2022-10-06T09:08:36.108Z,99718.47
2022-10-06T09:13:06.834Z,99718.38
2022-10-06T09:17:19.013Z,99705.72
2022-10-06T09:21:42.262Z,99704.50
2022-10-06T09:25:44.913Z,99697.88
2022-10-06T09:29:50.943Z,99686.66
2022-10-06T09:33:56.266Z,99695.38
2022-10-06T09:38:09.100Z,99688.34
2022-10-06T09:42:22.609Z,99691.22
2022-10-06T09:46:39.833Z,99689.34
2022-10-06T09:50:42.526Z,99693.22
2022-10-06T09:55:13.135Z,99683.88
2022-10-06T09:59:21.482Z,99683.97
2022-10-06T10:03:31.377Z,99681.25
2022-10-06T10:07:36.201Z,99682.56
2022-10-06T10:11:56.627Z,99682.97
2022-10-06T10:16:01.073Z,99677.59
2022-10-06T10:20:19.701Z,99676.31
2022-10-06T10:24:48.371Z,99671.78
2022-10-06T10:29:12.255Z,99659.16
2022-10-06T10:33:59.259Z,99661.41
2022-10-06T10:38:19.100Z,99657.97
2022-10-06T10:42:30.918Z,99661.25
2022-10-06T10:46:47.352Z,99664.06
2022-10-06T10:50:56.560Z,99667.66
2022-10-06T10:55:19.748Z,99655.72
2022-10-06T10:59:38.170Z,99656.00
2022-10-06T11:03:40.583Z,99654.44
2022-10-06T11:07:53.475Z,99653.44
2022-10-06T11:12:34.081Z,99642.56
2022-10-06T11:16:49.673Z,99645.44
2022-10-06T11:21:01.120Z,99643.47
2022-10-06T11:25:36.901Z,99638.91
2022-10-06T11:29:43.392Z,99634.75
2022-10-06T11:33:53.060Z,99632.28
2022-10-06T11:38:05.366Z,99627.56
2022-10-06T11:42:23.088Z,99618.03
2022-10-06T11:46:51.913Z,99613.78
2022-10-06T11:50:58.077Z,99609.47
2022-10-06T11:55:16.124Z,99605.47
2022-10-06T11:59:27.031Z,99607.09
2022-10-06T12:03:29.287Z,99608.41
2022-10-06T12:07:58.094Z,99598.53
2022-10-06T12:12:15.426Z,99590.44
2022-10-06T12:17:06.038Z,99589.97
2022-10-06T12:20:59.991Z,99583.22
2022-10-06T12:25:06.522Z,99585.53
2022-10-06T12:29:43.734Z,99576.41
2022-10-06T12:33:46.366Z,99581.38
2022-10-06T12:37:54.626Z,99577.56
2022-10-06T12:42:04.015Z,99574.66
2022-10-06T12:46:20.841Z,99568.75
2022-10-06T12:50:33.494Z,99556.91
2022-10-06T12:55:23.667Z,99556.75
2022-10-06T12:59:37.511Z,99556.75
2022-10-06T13:03:39.956Z,99544.31
2022-10-06T13:08:06.087Z,99550.38
2022-10-06T13:12:28.534Z,99551.31
2022-10-06T13:16:40.902Z,99555.50
2022-10-06T13:21:03.618Z,99542.19
2022-10-06T13:25:12.878Z,99553.19
2022-10-06T13:29:21.484Z,99539.47
2022-10-06T13:33:25.513Z,99542.00
2022-10-06T13:37:28.010Z,99536.88
2022-10-06T13:41:40.459Z,99539.13
2022-10-06T13:45:48.521Z,99532.25
2022-10-06T13:50:02.124Z,99522.59
2022-10-06T13:54:06.925Z,99526.50
2022-10-06T13:58:10.087Z,99530.03
2022-10-06T14:02:21.853Z,99529.19
2022-10-06T14:06:26.434Z,99526.06
2022-10-06T14:10:51.494Z,99528.72
2022-10-06T14:15:38.244Z,99537.53
2022-10-06T14:19:43.120Z,99530.13
2022-10-06T14:23:52.549Z,99533.63
2022-10-06T14:27:55.271Z,99536.34
2022-10-06T14:32:08.612Z,99528.28
2022-10-06T14:36:19.841Z,99533.97
2022-10-06T14:40:21.845Z,99539.72
2022-10-06T14:44:23.786Z,99535.75
2022-10-06T14:48:27.798Z,99539.41
2022-10-06T14:52:29.771Z,99533.94
2022-10-06T14:56:34.008Z,99528.13
2022-10-06T15:00:39.676Z,99530.09
2022-10-06T15:04:41.648Z,99526.06
2022-10-06T15:08:43.635Z,99523.28
2022-10-06T15:12:45.786Z,99523.16
2022-10-06T15:16:47.925Z,99525.56
2022-10-06T15:20:49.943Z,99528.34
2022-10-06T15:24:51.940Z,99525.78
2022-10-06T15:29:03.443Z,99530.00
2022-10-06T15:33:05.981Z,99522.50
2022-10-06T15:37:07.972Z,99516.13
2022-10-06T15:41:10.486Z,99520.91
2022-10-06T15:45:12.948Z,99507.19
2022-10-06T15:49:25.406Z,99514.19
2022-10-06T15:53:27.515Z,99509.72
2022-10-06T15:57:30.937Z,99503.56
2022-10-06T16:01:49.045Z,99513.69
2022-10-06T16:05:52.750Z,99511.16
2022-10-06T16:09:54.703Z,99508.19
2022-10-06T16:13:56.863Z,99502.00
2022-10-06T16:17:59.215Z,99509.94
2022-10-06T16:22:02.114Z,99510.41
2022-10-06T16:26:04.254Z,99517.44
2022-10-06T16:30:07.198Z,99515.19
2022-10-06T16:34:09.505Z,99520.00
2022-10-06T16:38:12.711Z,99526.66
2022-10-06T16:42:14.815Z,99530.56
2022-10-06T16:46:24.985Z,99530.06
2022-10-06T16:50:27.052Z,99525.22
2022-10-06T16:54:29.298Z,99529.91
2022-10-06T16:58:43.089Z,99532.84
2022-10-06T17:02:45.643Z,99533.50
2022-10-06T17:06:54.220Z,99551.59
2022-10-06T17:11:14.535Z,99543.59
2022-10-06T17:15:16.682Z,99544.28
2022-10-06T17:19:21.400Z,99555.78
2022-10-06T17:23:23.999Z,99552.50
2022-10-06T17:27:28.664Z,99566.41
2022-10-06T17:31:35.471Z,99562.47
2022-10-06T17:35:37.599Z,99563.72
2022-10-06T17:39:46.078Z,99568.41
2022-10-06T17:43:50.874Z,99565.19
2022-10-06T17:47:53.030Z,99573.78
2022-10-06T17:51:55.522Z,99579.16
2022-10-06T17:55:57.640Z,99580.63
2022-10-06T17:59:59.677Z,99589.53
2022-10-06T18:04:03.779Z,99595.72
2022-10-06T18:08:08.929Z,99603.25
2022-10-06T18:12:11.343Z,99607.81
2022-10-06T18:16:24.744Z,99609.44
2022-10-06T18:20:30.078Z,99622.66
2022-10-06T18:24:32.273Z,99625.66
2022-10-06T18:28:34.352Z,99618.13
2022-10-06T18:36:58.623Z,99626.69
2022-10-06T18:41:06.158Z,99626.72
2022-10-06T18:45:27.732Z,99628.38
2022-10-06T18:49:29.738Z,99633.19
2022-10-06T18:53:35.781Z,99635.88
2022-10-06T18:57:38.612Z,99639.94
2022-10-06T19:01:43.733Z,99640.47
2022-10-06T19:05:52.977Z,99644.78
2022-10-06T19:09:55.047Z,99642.94
2022-10-06T19:13:58.202Z,99646.16
2022-10-06T19:18:00.348Z,99649.09
2022-10-06T19:22:04.377Z,99651.00
2022-10-06T19:26:08.655Z,99645.09
2022-10-06T19:30:14.573Z,99644.81
2022-10-06T19:34:18.580Z,99650.97
2022-10-06T19:38:21.722Z,99653.38
2022-10-06T19:42:43.517Z,99656.09
2022-10-06T19:46:45.553Z,99664.63
2022-10-06T19:50:47.546Z,99667.78
2022-10-06T19:54:49.640Z,99672.63
2022-10-06T19:58:52.269Z,99667.50
2022-10-06T20:02:54.484Z,99668.25
2022-10-06T20:07:01.658Z,99670.13
2022-10-06T20:11:09.279Z,99671.47
2022-10-06T20:15:12.926Z,99678.44
2022-10-06T20:19:15.285Z,99673.03
2022-10-06T20:23:17.463Z,99675.41
2022-10-06T20:27:20.141Z,99666.56
2022-10-06T20:31:28.486Z,99667.13
2022-10-06T20:35:32.726Z,99677.72
2022-10-06T20:39:53.239Z,99672.63
2022-10-06T20:44:04.068Z,99676.91
2022-10-06T20:48:06.129Z,99677.97
2022-10-06T20:52:09.968Z,99670.19
2022-10-06T20:56:12.561Z,99675.81
2022-10-06T21:00:14.855Z,99672.59
2022-10-06T21:04:17.311Z,99668.03
2022-10-06T21:08:19.386Z,99662.66
2022-10-06T21:12:21.450Z,99669.09
2022-10-06T21:16:32.169Z,99665.84
2022-10-06T21:20:36.628Z,99656.94
2022-10-06T21:24:39.373Z,99657.50
2022-10-06T21:28:44.677Z,99657.75
2022-10-06T21:32:47.773Z,99647.78
2022-10-06T21:36:50.250Z,99650.97
2022-10-06T21:40:53.515Z,99661.69
2022-10-06T21:44:55.529Z,99656.44
2022-10-06T21:48:59.080Z,99653.50
2022-10-06T21:53:01.226Z,99651.88
2022-10-06T21:57:03.651Z,99646.53
2022-10-06T22:01:07.426Z,99648.13
2022-10-06T22:05:09.917Z,99651.81
2022-10-06T22:09:15.159Z,99640.25
2022-10-06T22:13:17.204Z,99644.38
2022-10-06T22:17:19.139Z,99649.78
2022-10-06T22:21:33.252Z,99661.22
2022-10-06T22:25:35.728Z,99656.41
2022-10-06T22:29:37.926Z,99649.50
2022-10-06T22:33:40.676Z,99640.19
2022-10-06T22:37:43.358Z,99637.59
2022-10-06T22:41:45.792Z,99629.28
2022-10-06T22:45:47.760Z,99628.16
2022-10-06T22:49:50.012Z,99631.78
2022-10-06T22:53:57.605Z,99635.00
2022-10-06T22:58:00.573Z,99635.97
2022-10-06T23:02:02.603Z,99623.56
2022-10-06T23:06:04.871Z,99621.72
2022-10-06T23:10:07.295Z,99621.09
2022-10-06T23:14:09.334Z,99615.50
2022-10-06T23:18:11.407Z,99614.53
2022-10-06T23:22:13.757Z,99613.47
2022-10-06T23:26:16.919Z,99614.47
2022-10-06T23:30:19.142Z,99608.06
2022-10-06T23:34:21.067Z,99605.78
2022-10-06T23:38:23.015Z,99610.25
2022-10-06T23:42:24.985Z,99609.31
2022-10-06T23:46:26.931Z,99602.06
2022-10-06T23:50:28.986Z,99607.47
2022-10-06T23:54:31.002Z,99604.97
2022-10-06T23:58:33.589Z,99604.72
